Windermere, Canada
Current Conditions -  °F | °C
As of 5:00 AM on Sunday 23 Nov 2014 (Local Time) from CYXC Reporting Station
Few Clouds Few Clouds  
Wind Chill: -5°   Ceiling: Unl
Heat Index: -5°   Visibility: 25mi
Dew Point: -7°   Wind: 3mph
Humidity: 86%   Direction: 240°WSW
Pressure: 29.94"   Gusts: NA
Location:  50.47°N, 115.97°W
Report Text: CYXC 231200Z 24003KT 170V260 25SM FEW160 M05/M07 A2994 RMK AC1 SLP173
Loading
Personal Weather Stations






























Interactive Weather Map New forecast layout! Learn more

10-Day Weather Forecast

Advertisements
Track Severe Weather on mobile